Login

Gesman
1 activity; - Last training unit 11/08/2013
11/08/2013 Show to everybody Allenamento 11-08-2013 alle 15:22:23.14 24.07 344 01:43:59 13.89 Km\h MTB
10/08/2013 Show to everybody Allenamento 10-08-2013 alle 09:13:59.43 17.01 441 01:23:00 12.3 Km\h MTB
05/08/2013 Show to everybody Allenamento 05-08-2013 alle 09:54:14.38 14.9 220 00:53:02 16.85 Km\h MTB
20/07/2013 Show to everybody Allenamento 20-07-2013 alle 10:34:33.73 22.76 481 01:47:43 12.68 Km\h MTB
17/07/2013 Show to everybody Allenamento 17-07-2013 alle 18:31:25.61 24.93 329 01:18:55 18.95 Km\h MTB
13/07/2013 Show to everybody Allenamento 13-07-2013 alle 08:50:28.50 18.14 390 01:21:04 13.43 Km\h MTB
07/07/2013 Show to everybody Allenamento 07-07-2013 alle 17:43:45.78 19.17 440 01:28:09 13.05 Km\h MTB
30/06/2013 Show to everybody Allenamento 30-06-2013 alle 19:08:14.81 14 397 01:06:29 12.64 Km\h MTB
25/06/2013 Show to everybody Allenamento 25-06-2013 alle 18:35:45.51 15.35 203 00:52:53 17.41 Km\h MTB
23/06/2013 Show to everybody Allenamento 23-06-2013 alle 09:11:22.66 18.53 390 01:25:34 13 Km\h MTB
16/06/2013 Show to everybody Allenamento 16-06-2013 alle 10:20:45.61 20.24 447 01:41:44 11.94 Km\h MTB
12/06/2013 Show to everybody Allenamento 12-06-2013 alle 18:29:30.76 16.57 174 00:57:04 17.42 Km\h MTB
09/06/2013 Show to everybody Allenamento 09-06-2013 alle 10:43:31.90 19.35 330 01:26:46 13.38 Km\h MTB
05/06/2013 Show to everybody Allenamento 05-06-2013 alle 17:09:58.96 13.37 382 01:07:09 11.94 Km\h MTB
01/06/2013 Show to everybody Allenamento 01-06-2013 alle 08:56:02.51 33.08 621 02:22:26 13.94 Km\h MTB
29/05/2013 Show to everybody Allenamento 29-05-2013 alle 18:30:00.11 16.22 226 00:53:45 18.11 Km\h MTB
26/05/2013 Show to everybody Allenamento 26-05-2013 alle 10:38:05.20 17.34 212 01:11:06 14.64 Km\h MTB
21/05/2013 Show to everybody Allenamento 21-05-2013 alle 18:40:57.89 23.81 302 01:33:44 15.24 Km\h MTB
19/05/2013 Show to everybody Allenamento 19-05-2013 alle 10:44:33.87 16.04 191 00:59:50 16.09 Km\h MTB
14/05/2013 Show to everybody Allenamento 14-05-2013 alle 18:22:36.49 16.71 197 01:01:55 16.2 Km\h MTB
12/05/2013 Show to everybody Allenamento 12-05-2013 alle 09:04:19.47 14.47 184 00:56:48 15.28 Km\h MTB
09/05/2013 Show to everybody Allenamento 09-05-2013 alle 18:19:07.71 16.11 222 00:59:29 16.25 Km\h MTB
01/05/2013 Show to everybody Allenamento 01-05-2013 alle 09:28:55.98 20.7 351 01:42:01 12.17 Km\h MTB
25/04/2013 Show to everybody Allenamento 25-04-2013 alle 07:39:00 24.54 138 01:39:22 14.82 Km\h MTB
14/04/2013 Show to everybody Allenamento 14-04-2013 alle 10:10:26.75 25.14 245 01:39:59 15.09 Km\h MTB
31/03/2013 Show to everybody Allenamento 31-03-2013 alle 09:43:20.82 17.1 237 01:10:39 14.52 Km\h MTB
23/03/2013 Show to everybody Allenamento 23-03-2013 alle 10:29:02.81 17.73 291 01:29:58 11.83 Km\h MTB
17/03/2013 Show to everybody Allenamento 17-03-2013 alle 10:04:20.66 15.22 369 01:01:22 14.88 Km\h MTB
23/02/2013 Show to everybody Allenamento 23-02-2013 alle 09:29:34.15 14.97 180 01:12:39 12.36 Km\h MTB
17/11/2012 Show to everybody Allenamento 17-11-2012 alle 10:23:34.43 21.99 274 01:16:56 17.15 Km\h MTB
Training units 0
Kilometers 0 Km
Vertical gain 0 mt
Hours of riding 00:00:00
Average speed 0 Km/h
average HR 139
Points 43
Live Tracking »

MTB 162:33:22 2393.4 Km

 
If you stop following this users you will not be able to compare your trainings with his

Now you follow this users and you can compare your trainings


MTB-Mag.com | 2012-2020 Training Camp v.1.6 rev 05